Map

Track Data

SID SEASON NUMBER BASIN SUBBASIN NAME ISO_TIME NATURE LAT LON WMO_WIND WMO_PRES WMO_AGENCY TRACK_TYPE DIST2LAND LANDFALL IFLAG USA_AGENCY USA_ATCF_ID USA_LAT USA_LON USA_RECORD USA_STATUS USA_WIND USA_PRES USA_SSHS USA_R34_NE USA_R34_SE USA_R34_SW USA_R34_NW USA_R50_NE USA_R50_SE USA_R50_SW USA_R50_NW USA_R64_NE USA_R64_SE USA_R64_SW USA_R64_NW USA_POCI USA_ROCI USA_RMW USA_EYE TOKYO_LAT TOKYO_LON TOKYO_GRADE TOKYO_WIND TOKYO_PRES TOKYO_R50_DIR TOKYO_R50_LONG TOKYO_R50_SHORT TOKYO_R30_DIR TOKYO_R30_LONG TOKYO_R30_SHORT TOKYO_LAND CMA_LAT CMA_LON CMA_CAT CMA_WIND CMA_PRES HKO_LAT HKO_LON HKO_CAT HKO_WIND HKO_PRES NEWDELHI_LAT NEWDELHI_LON NEWDELHI_GRADE NEWDELHI_WIND NEWDELHI_PRES NEWDELHI_CI NEWDELHI_DP NEWDELHI_POCI REUNION_LAT REUNION_LON REUNION_TYPE REUNION_WIND REUNION_PRES REUNION_TNUM REUNION_CI REUNION_RMW REUNION_R34_NE REUNION_R34_SE REUNION_R34_SW REUNION_R34_NW REUNION_R50_NE REUNION_R50_SE REUNION_R50_SW REUNION_R50_NW REUNION_R64_NE REUNION_R64_SE REUNION_R64_SW REUNION_R64_NW BOM_LAT BOM_LON BOM_TYPE BOM_WIND BOM_PRES BOM_TNUM BOM_CI BOM_RMW BOM_R34_NE BOM_R34_SE BOM_R34_SW BOM_R34_NW BOM_R50_NE BOM_R50_SE BOM_R50_SW BOM_R50_NW BOM_R64_NE BOM_R64_SE BOM_R64_SW BOM_R64_NW BOM_ROCI BOM_POCI BOM_EYE BOM_POS_METHOD BOM_PRES_METHOD NADI_LAT NADI_LON NADI_CAT NADI_WIND NADI_PRES WELLINGTON_LAT WELLINGTON_LON WELLINGTON_WIND WELLINGTON_PRES DS824_LAT DS824_LON DS824_STAGE DS824_WIND DS824_PRES TD9636_LAT TD9636_LON TD9636_STAGE TD9636_WIND TD9636_PRES TD9635_LAT TD9635_LON TD9635_WIND TD9635_PRES TD9635_ROCI NEUMANN_LAT NEUMANN_LON NEUMANN_CLASS NEUMANN_WIND NEUMANN_PRES MLC_LAT MLC_LON MLC_CLASS MLC_WIND MLC_PRES USA_GUST BOM_GUST BOM_GUST_PER REUNION_GUST REUNION_GUST_PER USA_SEAHGT USA_SEARAD_NE USA_SEARAD_SE USA_SEARAD_SW USA_SEARAD_NW STORM_SPEED STORM_DIR
1990250N13157 1990 82 WP MM ED 1990-09-07 00:00:00 NR 13.2000 157.200 main 1912 1893 O_____________ jtwc_wp WP191990 13.2000 157.200 15 -1 11 272
1990250N13157 1990 82 WP MM ED 1990-09-07 03:00:00 NR 13.2202 156.650 main 1889 1882 P_____________ WP191990 13.2202 156.650 15 -1 11 275
1990250N13157 1990 82 WP MM ED 1990-09-07 06:00:00 NR 13.3000 156.100 main 1882 1875 O_____________ jtwc_wp WP191990 13.3000 156.100 15 -1 11 284
1990250N13157 1990 82 WP MM ED 1990-09-07 09:00:00 NR 13.4774 155.550 main 1887 1881 P_____________ WP191990 13.4774 155.550 15 -1 11 291
1990250N13157 1990 82 WP MM ED 1990-09-07 12:00:00 NR 13.7000 155.000 main 1892 1889 O_____________ jtwc_wp WP191990 13.7000 155.000 15 -1 12 291
1990250N13157 1990 82 WP MM ED 1990-09-07 15:00:00 NR 13.8850 154.435 main 1899 1897 P_____________ WP191990 13.8850 154.435 15 -1 11 291
1990250N13157 1990 82 WP MM ED 1990-09-07 18:00:00 NR 14.1000 153.900 main 1911 1909 O_____________ jtwc_wp WP191990 14.1000 153.900 15 -1 11 298
1990250N13157 1990 82 WP MM ED 1990-09-07 21:00:00 NR 14.3923 153.442 main 1935 1935 P_____________ WP191990 14.3923 153.442 17 -1 11 305
1990250N13157 1990 82 WP MM ED 1990-09-08 00:00:00 NR 14.7000 153.000 main 1963 1961 O_____________ jtwc_wp WP191990 14.7000 153.000 20 -1 11 302
1990250N13157 1990 82 WP MM ED 1990-09-08 03:00:00 NR 14.9499 152.507 main 1979 1979 P_____________ WP191990 14.9499 152.507 20 -1 11 297
1990250N13157 1990 82 WP MM ED 1990-09-08 06:00:00 NR 15.2000 152.000 main 2003 2000 O_____________ jtwc_wp WP191990 15.2000 152.000 20 -1 11 298
1990250N13157 1990 82 WP MM ED 1990-09-08 09:00:00 NR 15.4775 151.485 main 2022 2020 P_____________ WP191990 15.4775 151.485 20 -1 11 302
1990250N13157 1990 82 WP MM ED 1990-09-08 12:00:00 NR 15.8000 151.000 main 2043 2041 O_____________ jtwc_wp WP191990 15.8000 151.000 20 -1 11 309
1990250N13157 1990 82 WP MM ED 1990-09-08 15:00:00 NR 16.1774 150.577 main 2079 2078 P_____________ WP191990 16.1774 150.577 20 -1 11 316
1990250N13157 1990 82 WP MM ED 1990-09-08 18:00:00 NR 16.6000 150.200 main 2117 2117 O_____________ jtwc_wp WP191990 16.6000 150.200 20 -1 11 321
1990250N13157 1990 82 WP MM ED 1990-09-08 21:00:00 NR 17.0575 149.820 main 2166 2163 P_____________ WP191990 17.0575 149.820 22 -1 11 323
1990250N13157 1990 82 WP MM ED 1990-09-09 00:00:00 NR 17.5000 149.500 main 2163 2113 O_____________ jtwc_wp WP191990 17.5000 149.500 25 -1 10 328
1990250N13157 1990 82 WP MM ED 1990-09-09 03:00:00 NR 17.8724 149.285 main 2113 2074 P_____________ WP191990 17.8724 149.285 25 -1 8 331
1990250N13157 1990 82 WP MM ED 1990-09-09 06:00:00 NR 18.2000 149.100 main 2074 2035 O_____________ jtwc_wp WP191990 18.2000 149.100 25 -1 8 329
1990250N13157 1990 82 WP MM ED 1990-09-09 09:00:00 NR 18.5224 148.872 main 2035 1991 P_____________ WP191990 18.5224 148.872 25 -1 8 322
1990250N13157 1990 82 WP MM ED 1990-09-09 12:00:00 NR 18.8000 148.600 main 1991 1958 O_____________ jtwc_wp WP191990 18.8000 148.600 25 -1 8 312
1990250N13157 1990 82 WP MM ED 1990-09-09 15:00:00 NR 19.0300 148.272 main 1958 1950 P_____________ WP191990 19.0300 148.272 25 -1 5 289
1990250N13157 1990 82 WP MM ED 1990-09-09 18:00:00 TS 18.9667 148.100 1004 tokyo main 1950 1938 OOO___________ jtwc_wp WP191990 19.2000 147.900 25 -1 18.5000 148.500 2 1004 0 0 0 18.5000 148.500 0 19 1004 5 270
1990250N13157 1990 82 WP MM ED 1990-09-09 21:00:00 TS 19.0314 147.754 main 1938 1902 PPP___________ WP191990 19.3225 147.507 25 -1 18.7378 148.000 2 1004 0 0 18.7428 148.000 0 21 1003 7 285
1990250N13157 1990 82 WP MM ED 1990-09-10 00:00:00 TS 19.1600 147.340 1004 tokyo main 1898 1873 OOO___________ jtwc_wp WP191990 19.4000 147.100 25 -1 19.0000 147.500 2 1004 0 0 0 19.0000 147.500 1 23 1002 9 291
1990250N13157 1990 82 WP MM ED 1990-09-10 03:00:00 TS 19.3390 146.910 main 1873 1837 PPP___________ WP191990 19.4572 146.730 27 -1 19.2874 147.000 2 1003 0 0 19.2724 147.000 1 23 1002 9 292
1990250N13157 1990 82 WP MM ED 1990-09-10 06:00:00 TS 19.5000 146.433 1002 tokyo main 1834 1810 OOO___________ jtwc_wp WP191990 19.5000 146.300 30 -1 19.5000 146.500 2 1002 0 0 0 19.5000 146.500 1 23 1002 9 284
1990250N13157 1990 82 WP MM ED 1990-09-10 09:00:00 TS 19.5721 145.942 main 1807 1791 PPP___________ WP191990 19.5500 145.737 30 -1 19.5368 146.052 2 1002 0 0 19.6295 146.037 1 23 1002 10 275
1990250N13157 1990 82 WP MM ED 1990-09-10 12:00:00 TS 19.5923 145.377 1002 tokyo main 1791 1772 OOOO__________ jtwc_wp WP191990 19.6000 145.100 30 -1 19.5000 145.500 2 1002 0 0 0 19.7000 145.500 1 23 1002 19.5000 145.500 TD 25 1000 12 273
1990250N13157 1990 82 WP MM ED 1990-09-10 15:00:00 TS 19.6361 144.653 main 1772 1727 PPPP__________ WP191990 19.6572 144.473 30 -1 19.4999 144.725 2 1002 0 0 19.7651 144.788 1 26 1001 19.6084 144.600 TD 25 1000 15 273
1990250N13157 1990 82 WP MM ED 1990-09-10 18:00:00 TS 19.6733 143.833 1002 tokyo main 1722 1687 OOOO__________ jtwc_wp WP191990 19.7000 143.800 30 -1 19.5000 143.800 2 1002 0 0 0 19.8000 144.000 1 29 1000 19.7000 143.700 TD 25 1000 16 272
1990250N13157 1990 82 WP MM ED 1990-09-10 21:00:00 TS 19.6967 142.981 main 1687 1655 PPPP__________ WP191990 19.7074 143.065 30 -1 19.4925 142.807 2 1002 0 0 19.8222 143.250 1 29 999 19.7645 142.800 TD 25 1000 16 271
1990250N13157 1990 82 WP MM ED 1990-09-11 00:00:00 TS 19.7000 142.125 1002 tokyo main 1652 1627 OOOO__________ jtwc_wp WP191990 19.7000 142.300 30 -1 19.5000 141.800 2 1002 0 0 0 19.8000 142.500 1 29 998 19.8000 141.900 TD 25 1000 16 270
1990250N13157 1990 82 WP MM ED 1990-09-11 03:00:00 TS 19.6903 141.323 main 1623 1592 PPPP__________ WP191990 19.6922 141.550 32 -1 19.5420 140.870 2 1002 0 0 19.7276 141.870 1 29 998 19.7995 141.000 TD 25 1000 16 269
1990250N13157 1990 82 WP MM ED 1990-09-11 06:00:00 TS 19.6750 140.475 1002 tokyo main 1592 1537 OOOO__________ jtwc_wp WP191990 19.7000 140.800 35 0 19.6000 140.000 2 1002 0 0 0 19.6000 141.000 1 29 998 19.8000 140.100 TD 25 1000 18 269
1990250N13157 1990 82 WP MM ED 1990-09-11 09:00:00 TS 19.6563 139.413 main 1532 1494 PPPP__________ WP191990 19.7424 140.028 35 0 19.6575 139.133 2 1002 0 0 19.3748 139.366 1 33 996 19.8505 139.125 TD 25 1000 19 269
1990250N13157 1990 82 WP MM ED 1990-09-11 12:00:00 TS 19.6500 138.475 1002 tokyo main 1484 1458 OOOO__________ jtwc_wp WP191990 19.8000 139.300 35 0 19.7000 138.400 2 1002 0 0 0 19.2000 137.900 2 38 995 19.9000 138.300 TD 25 1000 14 271
1990250N13157 1990 82 WP MM ED 1990-09-11 15:00:00 TS 19.6808 137.980 main 1458 1443 PPPP__________ WP191990 19.8570 138.685 35 0 19.7068 137.905 2 1001 0 0 19.2602 137.506 2 38 995 19.8992 137.825 TD 27 1000 8 276
1990250N13157 1990 82 WP MM ED 1990-09-11 18:00:00 TS 19.7250 137.650 1000 tokyo main 1443 1410 OOOO__________ jtwc_wp WP191990 19.9000 138.100 35 0 19.7000 137.500 2 1000 0 0 0 19.4000 137.500 2 38 995 19.9000 137.500 TD 30 1000 7 276
1990250N13157 1990 82 WP MM ED 1990-09-11 21:00:00 TS 19.7537 137.207 main 1410 1392 PPPP__________ WP191990 19.9073 137.457 35 0 19.7000 136.993 2 999 0 0 19.4574 137.272 2 38 995 19.9499 137.108 TD 32 997 8 273
1990250N13157 1990 82 WP MM ED 1990-09-12 00:00:00 TS 19.7750 136.750 35 998 tokyo main 1392 1371 OOOO__________ jtwc_wp WP191990 19.9000 136.800 35 0 19.7000 136.500 3 35 998 0 9 75 75 0 19.5000 137.000 2 38 995 20.0000 136.700 TS 35 995 8 272
1990250N13157 1990 82 WP MM ED 1990-09-12 03:00:00 TS 19.7816 136.312 main 1371 1355 PPPP__________ WP191990 19.8998 136.150 37 0 19.6996 136.107 3 37 995 0 9 112 112 19.5347 136.710 2 38 995 19.9922 136.280 TS 37 992 9 272
1990250N13157 1990 82 WP MM ED 1990-09-12 06:00:00 TS 19.8000 135.825 40 992 tokyo main 1351 1322 OOOO__________ jtwc_wp WP191990 19.9000 135.500 40 0 19.7000 135.700 3 40 992 0 9 150 150 0 19.6000 136.300 2 38 995 20.0000 135.800 TS 40 990 10 274
1990250N13157 1990 82 WP MM ED 1990-09-12 09:00:00 TS 19.8547 135.259 main 1322 1275 PPPP__________ WP191990 19.8998 134.850 42 0 19.6922 135.202 3 42 991 0 9 162 162 19.7425 135.710 2 43 992 20.0844 135.275 TS 42 987 12 276
1990250N13157 1990 82 WP MM ED 1990-09-12 12:00:00 TS 19.9250 134.600 45 990 tokyo main 1275 1219 OOOO__________ jtwc_wp WP191990 19.9000 134.200 45 0 19.7000 134.600 3 45 990 0 9 175 175 0 19.9000 135.000 3 48 990 20.2000 134.600 TS 45 985 13 277
1990250N13157 1990 82 WP MM ED 1990-09-12 15:00:00 TS 20.0083 133.837 main 1210 1149 PPPP__________ WP191990 19.8921 133.565 45 0 19.7575 133.880 3 45 990 0 9 175 175 20.0299 134.265 3 48 990 20.3537 133.636 TS 42 987 15 275
1990250N13157 1990 82 WP MM ED 1990-09-12 18:00:00 TS 20.0500 133.050 45 990 tokyo main 1149 1075 OOOO__________ jtwc_wp WP191990 19.9000 132.900 45 0 19.8000 133.100 3 45 990 0 9 175 175 0 20.1000 133.500 3 48 990 20.4000 132.700 TS 40 990 14 270
1990250N13157 1990 82 WP MM ED 1990-09-12 21:00:00 TS 19.9968 132.370 main 1075 1001 PPPP__________ WP191990 19.9498 132.173 45 0 19.7721 132.357 3 45 990 0 9 175 175 20.0794 132.772 3 48 987 20.1862 132.177 TS 37 992 13 263
1990250N13157 1990 82 WP MM ED 1990-09-13 00:00:00 TS 19.9000 131.675 45 990 tokyo main 1001 917 OOOO__________ jtwc_wp WP191990 20.0000 131.400 45 0 19.7000 131.600 3 45 990 0 9 175 175 0 20.0000 132.000 3 48 985 19.9000 131.700 TS 35 995 14 262
1990250N13157 1990 82 WP MM ED 1990-09-13 03:00:00 TS 19.7993 130.865 main 917 832 PPPP__________ WP191990 20.0072 130.607 45 0 19.5999 130.792 3 47 987 0 9 187 187 19.8925 131.115 3 48 985 19.6977 130.945 TS 37 992 16 264
1990250N13157 1990 82 WP MM ED 1990-09-13 06:00:00 TS 19.7250 130.025 50 985 tokyo main 822 749 OOOO__________ jtwc_wp WP191990 20.0000 129.800 45 0 19.5000 130.000 4 50 985 0 9 200 200 0 19.8000 130.200 3 48 985 19.6000 130.100 TS 40 990 15 267
1990250N13157 1990 82 WP MM ED 1990-09-13 09:00:00 TS 19.7275 129.247 main 739 667 PPPP__________ WP191990 19.9996 129.000 45 0 19.4491 129.323 4 50 985 0 9 175 175 19.7845 129.343 3 48 985 19.6768 129.323 TS 42 987 15 271
1990250N13157 1990 82 WP MM ED 1990-09-13 12:00:00 TS 19.7500 128.450 50 985 tokyo main 669 575 OOOO__________ jtwc_wp WP191990 20.0000 128.200 45 0 19.4000 128.600 4 50 985 0 9 150 150 0 19.8000 128.500 3 48 985 19.8000 128.500 TS 45 985 16 271
1990250N13157 1990 82 WP MM ED 1990-09-13 15:00:00 TS 19.7415 127.585 main 575 484 PPPP__________ WP191990 20.0146 127.400 50 0 19.2927 127.680 4 52 982 0 9 150 150 19.8066 127.680 3 48 985 19.8522 127.580 TS 47 982 17 268
1990250N13157 1990 82 WP MM ED 1990-09-13 18:00:00 TS 19.7000 126.675 55 980 tokyo main 484 391 OOOO__________ jtwc_wp WP191990 20.0000 126.600 55 0 19.2000 126.700 4 55 980 9 50 50 9 150 150 0 19.8000 126.800 3 48 985 19.8000 126.600 STS 50 980 18 266
1990250N13157 1990 82 WP MM ED 1990-09-13 21:00:00 TS 19.6133 125.709 main 381 290 PPPP__________ WP191990 19.9297 125.793 60 0 19.1847 125.778 4 57 977 9 50 50 9 150 150 19.7808 125.720 3 53 982 19.5579 125.546 STS 52 977 18 264
1990250N13157 1990 82 WP MM ED 1990-09-14 00:00:00 TS 19.5000 124.800 60 975 tokyo main 290 219 OOOO__________ jtwc_wp WP191990 19.8000 125.000 65 1 19.2000 124.900 4 60 975 9 50 50 9 150 150 0 19.7000 124.700 3 58 980 19.3000 124.600 STS 55 975 15 262
1990250N13157 1990 82 WP MM ED 1990-09-14 03:00:00 TS 19.3883 124.091 main 219 153 PPPP__________ WP191990 19.6145 124.250 65 1 19.2070 124.078 4 62 972 9 55 55 9 150 150 19.5131 124.058 3 58 980 19.2187 123.978 STS 57 972 13 260
1990250N13157 1990 82 WP MM ED 1990-09-14 06:00:00 TS 19.2750 123.400 65 970 tokyo main 153 94 OOOO__________ jtwc_wp WP191990 19.4000 123.500 65 1 19.2000 123.300 5 65 970 9 60 60 9 150 150 0 19.3000 123.400 3 58 980 19.2000 123.400 STS 60 970 15 262
1990250N13157 1990 82 WP MM ED 1990-09-14 09:00:00 TS 19.1853 122.525 main 91 74 PPPP__________ WP191990 19.1999 122.693 67 1 19.1872 122.535 5 65 970 9 60 60 9 187 187 19.1665 122.293 3 63 975 19.1877 122.581 STS 60 970 17 262
1990250N13157 1990 82 WP MM ED 1990-09-14 12:00:00 TS 19.0500 121.650 65 970 tokyo main 74 22 OOOO__________ jtwc_wp WP191990 19.0000 121.900 70 1 19.1000 121.800 5 65 970 9 60 60 9 225 225 0 19.0000 121.200 4 68 970 19.1000 121.700 STS 60 970 16 256
1990250N13157 1990 82 WP MM ED 1990-09-14 15:00:00 TS 18.8040 120.905 main 22 11 PPPP__________ WP191990 18.7997 121.170 70 1 18.8871 121.092 5 62 972 9 60 60 9 225 225 18.6990 120.510 4 68 970 18.8301 120.847 STS 60 970 14 248
1990250N13157 1990 82 WP MM ED 1990-09-14 18:00:00 TS 18.5250 120.250 60 975 tokyo main 33 33 OOOO__________ jtwc_wp WP191990 18.6000 120.500 70 1 18.6000 120.400 4 60 975 9 60 60 9 225 225 0 18.4000 120.000 4 68 970 18.5000 120.100 STS 60 970 13 247
1990250N13157 1990 82 WP MM ED 1990-09-14 21:00:00 TS 18.2904 119.649 main 97 97 PPPP__________ WP191990 18.3997 119.885 70 1 18.2925 119.670 4 60 975 9 60 60 9 225 225 18.2347 119.485 4 68 970 18.2344 119.555 STS 60 970 12 248
1990250N13157 1990 82 WP MM ED 1990-09-15 00:00:00 TS 18.0750 119.100 60 975 tokyo main 138 138 OOOO__________ jtwc_wp WP191990 18.2000 119.300 70 1 18.0000 119.000 4 60 975 9 60 60 9 225 225 0 18.1000 119.000 4 68 970 18.0000 119.100 STS 60 970 11 247
1990250N13157 1990 82 WP MM ED 1990-09-15 03:00:00 TS 17.8635 118.570 main 183 183 PPPP__________ WP191990 17.9998 118.700 70 1 17.7771 118.470 4 60 975 9 60 60 9 225 225 17.8924 118.500 4 68 970 17.7848 118.608 STS 60 970 11 248
1990250N13157 1990 82 WP MM ED 1990-09-15 06:00:00 TS 17.6750 118.050 60 975 tokyo main 233 233 OOOO__________ jtwc_wp WP191990 17.8000 118.100 70 1 17.6000 118.000 4 60 975 9 60 60 9 225 225 0 17.7000 118.000 4 68 970 17.6000 118.100 STS 60 970 11 251
1990250N13157 1990 82 WP MM ED 1990-09-15 09:00:00 TS 17.5212 117.509 main 279 279 PPPP__________ WP191990 17.5924 117.485 70 1 17.4424 117.500 4 62 972 9 60 60 9 225 225 17.6074 117.500 4 68 970 17.4425 117.550 STS 62 967 11 254
1990250N13157 1990 82 WP MM ED 1990-09-15 12:00:00 TS 17.3750 116.975 65 970 tokyo main 322 322 OOOO__________ jtwc_wp WP191990 17.4000 116.900 70 1 17.3000 117.000 5 65 970 9 60 60 9 225 225 0 17.5000 117.000 4 68 970 17.3000 117.000 T 65 965 10 252
1990250N13157 1990 82 WP MM ED 1990-09-15 15:00:00 TS 17.1998 116.469 main 365 365 PPPP__________ WP191990 17.2498 116.385 70 1 17.1499 116.500 5 65 970 9 60 60 9 225 225 17.2499 116.500 4 68 970 17.1498 116.493 T 65 965 10 250
1990250N13157 1990 82 WP MM ED 1990-09-15 18:00:00 TS 17.0250 115.975 65 970 tokyo main 410 410 OOOO__________ jtwc_wp WP191990 17.1000 115.900 70 1 17.0000 116.000 5 65 970 9 60 60 9 225 225 0 17.0000 116.000 4 68 970 17.0000 116.000 T 65 965 10 251
1990250N13157 1990 82 WP MM ED 1990-09-15 21:00:00 TS 16.8694 115.458 main 459 459 PPPP__________ WP191990 16.9000 115.377 72 1 16.8500 115.485 5 67 967 9 67 67 9 225 225 16.8850 115.485 4 68 970 16.8425 115.485 T 65 965 10 253
1990250N13157 1990 82 WP MM ED 1990-09-16 00:00:00 TS 16.7250 114.975 70 965 tokyo main 507 499 OOOO__________ jtwc_wp WP191990 16.7000 114.900 75 1 16.7000 115.000 5 70 965 9 75 75 9 225 225 0 16.8000 115.000 4 68 970 16.7000 115.000 T 65 965 9 252
1990250N13157 1990 82 WP MM ED 1990-09-16 03:00:00 TS 16.5855 114.561 main 499 469 PPPP__________ WP191990 16.5423 114.528 75 1 16.5424 114.570 5 70 965 9 75 75 9 225 225 16.6574 114.578 4 68 970 16.5999 114.570 T 67 962 8 250
1990250N13157 1990 82 WP MM ED 1990-09-16 06:00:00 TS 16.4500 114.200 70 965 tokyo main 469 456 OOOO__________ jtwc_wp WP191990 16.4000 114.200 75 1 16.4000 114.200 5 70 965 9 75 75 9 225 225 0 16.5000 114.200 4 68 970 16.5000 114.200 T 70 960 7 247
1990250N13157 1990 82 WP MM ED 1990-09-16 09:00:00 TS 16.2993 113.862 main 456 439 PPPP__________ WP191990 16.2350 113.835 77 1 16.2849 113.893 5 70 965 9 75 75 9 225 225 16.3349 113.835 4 68 970 16.3424 113.885 T 70 960 7 246
1990250N13157 1990 82 WP MM ED 1990-09-16 12:00:00 TS 16.1750 113.550 70 965 tokyo main 439 423 OOOO__________ jtwc_wp WP191990 16.1000 113.500 80 1 16.2000 113.600 5 70 965 9 75 75 9 225 225 0 16.2000 113.500 4 68 970 16.2000 113.600 T 70 960 6 252
1990250N13157 1990 82 WP MM ED 1990-09-16 15:00:00 TS 16.1062 113.239 main 415 400 PPPP__________ WP191990 16.0349 113.235 85 2 16.1350 113.243 5 70 965 9 75 75 9 225 225 16.1274 113.193 4 68 970 16.1275 113.285 T 70 960 6 260
1990250N13157 1990 82 WP MM ED 1990-09-16 18:00:00 TS 16.0750 112.950 70 965 tokyo main 400 379 OOOO__________ jtwc_wp WP191990 16.0000 113.000 90 2 16.1000 112.900 5 70 965 9 75 75 9 225 225 0 16.1000 112.900 4 68 970 16.1000 113.000 T 70 960 5 264
1990250N13157 1990 82 WP MM ED 1990-09-16 21:00:00 TS 16.0530 112.698 main 379 373 PPPP__________ WP191990 15.9424 112.757 90 2 16.0924 112.643 5 70 965 9 75 75 9 212 212 16.0850 112.585 4 68 970 16.0924 112.808 T 70 960 5 267
1990250N13157 1990 82 WP MM ED 1990-09-17 00:00:00 TS 16.0500 112.450 70 965 tokyo main 366 347 OOOO__________ jtwc_wp WP191990 15.9000 112.500 90 2 16.1000 112.400 5 70 965 9 75 75 9 200 200 0 16.1000 112.300 4 68 970 16.1000 112.600 T 70 960 5 271
1990250N13157 1990 82 WP MM ED 1990-09-17 03:00:00 TS 16.0605 112.183 main 347 327 PPPP__________ WP191990 15.8925 112.215 87 2 16.0999 112.123 5 70 965 9 75 75 9 200 200 16.1498 112.123 4 68 970 16.1000 112.273 T 70 960 6 273
1990250N13157 1990 82 WP MM ED 1990-09-17 06:00:00 TS 16.0750 111.875 70 965 tokyo main 327 296 OOOO__________ jtwc_wp WP191990 15.9000 111.900 85 2 16.1000 111.800 5 70 965 9 75 75 9 200 200 0 16.2000 111.900 4 68 970 16.1000 111.900 T 70 960 7 271
1990250N13157 1990 82 WP MM ED 1990-09-17 09:00:00 TS 16.0713 111.495 main 296 256 PPPP__________ WP191990 15.9000 111.558 82 1 16.0926 111.400 5 70 965 9 75 75 9 200 200 16.2002 111.465 4 68 970 16.0924 111.557 T 67 962 7 270
1990250N13157 1990 82 WP MM ED 1990-09-17 12:00:00 TS 16.0750 111.100 70 965 tokyo main 256 227 OOOO__________ jtwc_wp WP191990 15.9000 111.200 80 1 16.1000 111.000 5 70 965 9 75 75 9 200 200 0 16.2000 111.000 4 68 970 16.1000 111.200 T 65 965 7 273
1990250N13157 1990 82 WP MM ED 1990-09-17 15:00:00 TS 16.1049 110.759 main 227 189 PPPP__________ WP191990 15.8774 110.857 80 1 16.1499 110.685 5 70 965 9 75 75 9 200 200 16.2498 110.685 4 68 970 16.1425 110.808 T 65 965 7 277
1990250N13157 1990 82 WP MM ED 1990-09-17 18:00:00 TS 16.1500 110.425 70 965 tokyo main 195 170 OOOO__________ jtwc_wp WP191990 15.9000 110.500 80 1 16.2000 110.400 5 70 965 9 75 75 9 200 200 0 16.3000 110.400 4 68 970 16.2000 110.400 T 65 965 7 277
1990250N13157 1990 82 WP MM ED 1990-09-17 21:00:00 TS 16.1849 110.074 main 170 139 PPPP__________ WP191990 16.0350 110.108 77 1 16.1773 110.122 5 70 965 9 67 67 9 212 175 16.2849 110.065 4 68 970 16.2424 110.000 T 65 965 7 278
1990250N13157 1990 82 WP MM ED 1990-09-18 00:00:00 TS 16.2500 109.700 70 965 tokyo main 146 115 OOOO__________ jtwc_wp WP191990 16.2000 109.700 75 1 16.2000 109.800 5 70 965 9 60 60 2 225 150 0 16.3000 109.700 4 68 970 16.3000 109.600 T 65 965 8 285
1990250N13157 1990 82 WP MM ED 1990-09-18 03:00:00 TS 16.3819 109.286 main 115 85 PPPP__________ WP191990 16.3000 109.292 75 1 16.3851 109.358 5 67 967 9 60 60 2 225 150 16.4425 109.300 4 63 975 16.4000 109.193 T 65 965 8 289
1990250N13157 1990 82 WP MM ED 1990-09-18 06:00:00 TS 16.5250 108.875 65 970 tokyo main 85 61 OOOO__________ jtwc_wp WP191990 16.4000 108.900 75 1 16.6000 108.900 5 65 970 9 60 60 2 225 150 0 16.6000 108.900 3 58 980 16.5000 108.800 T 65 965 8 288
1990250N13157 1990 82 WP MM ED 1990-09-18 09:00:00 TS 16.6237 108.502 main 61 54 PPPP__________ WP191990 16.5500 108.528 72 1 16.7299 108.527 5 62 972 9 50 50 2 212 137 16.6649 108.535 3 58 980 16.5500 108.420 T 62 967 7 285
1990250N13157 1990 82 WP MM ED 1990-09-18 12:00:00 TS 16.7000 108.175 60 975 tokyo main 54 39 OOOO__________ jtwc_wp WP191990 16.7000 108.200 70 1 16.8000 108.200 4 60 975 9 40 40 2 200 125 0 16.7000 108.200 3 58 980 16.6000 108.100 STS 60 970 6 283
1990250N13157 1990 82 WP MM ED 1990-09-18 15:00:00 TS 16.7606 107.892 main 39 24 PPPP__________ WP191990 16.8074 107.935 65 1 16.8000 107.877 4 57 977 9 35 35 2 200 100 16.7425 107.877 3 58 980 16.6924 107.877 STS 57 972 5 284
1990250N13157 1990 82 WP MM ED 1990-09-18 18:00:00 TS 16.8250 107.650 55 980 tokyo main 24 15 OOOO__________ jtwc_wp WP191990 16.9000 107.700 60 0 16.8000 107.600 4 55 980 9 30 30 2 200 75 0 16.8000 107.600 3 58 980 16.8000 107.700 STS 55 975 5 288
1990250N13157 1990 82 WP MM ED 1990-09-18 21:00:00 TS 16.9081 107.428 main 15 10 PPPP__________ WP191990 16.9849 107.465 57 0 16.8700 107.355 4 52 982 9 2 212 75 16.8849 107.392 3 53 982 16.8925 107.500 STS 55 977 5 296
1990250N13157 1990 82 WP MM ED 1990-09-19 00:00:00 TS 17.0250 107.225 50 985 tokyo main 10 0 OOOO__________ jtwc_wp WP191990 17.1000 107.200 55 0 17.0000 107.200 4 50 985 0 2 225 75 0 17.0000 107.200 3 48 985 17.0000 107.300 STS 55 980 5 303
1990250N13157 1990 82 WP MM ED 1990-09-19 03:00:00 TS 17.1681 107.014 main 10 0 PPPP__________ WP191990 17.2775 106.865 52 0 17.1325 107.177 4 45 988 0 2 162 62 17.1426 106.928 3 43 987 17.1200 107.085 STS 52 982 5 313
1990250N13157 1990 82 WP MM ED 1990-09-19 06:00:00 TS 17.3750 106.825 40 992 tokyo main 10 10 OOOO__________ jtwc_wp WP191990 17.5000 106.500 50 0 17.4000 107.200 3 40 992 0 2 100 50 0 17.3000 106.700 2 38 990 17.3000 106.900 STS 50 985 6 327
1990250N13157 1990 82 WP MM ED 1990-09-19 09:00:00 TS 17.6575 106.686 main 21 10 PPPP__________ WP191990 17.7275 106.127 47 0 17.9350 107.187 3 37 993 0 2 100 50 17.4049 106.635 2 38 990 17.5625 106.792 STS 45 990 7 337
1990250N13157 1990 82 WP MM ED 1990-09-19 12:00:00 TS 18.0000 106.550 35 994 tokyo main 15 10 OOOO__________ jtwc_wp WP191990 18.0000 105.800 45 0 18.5000 107.100 3 35 994 0 2 100 50 0 17.6000 106.600 2 38 990 17.9000 106.700 TS 40 995 8 340
1990250N13157 1990 82 WP MM ED 1990-09-19 15:00:00 TS 18.3786 106.404 main 24 24 PPPP__________ WP191990 18.3349 105.577 40 0 18.8597 106.940 3 35 995 0 2 100 50 18.0124 106.502 2 38 990 18.3074 106.595 TS 37 995 8 335
1990250N13157 1990 82 WP MM ED 1990-09-19 18:00:00 TS 18.7500 106.175 35 996 tokyo main 43 10 OOOO__________ jtwc_wp WP191990 18.7000 105.400 35 0 19.1000 106.600 3 35 996 0 2 100 50 0 18.5000 106.300 2 38 990 18.7000 106.400 TS 35 995 9 319
1990250N13157 1990 82 WP MM ED 1990-09-19 21:00:00 TS 19.0659 105.774 main 10 0 PPPP__________ WP191990 19.0500 105.192 32 -1 19.3032 105.965 3 998 0 2 18.9301 105.930 2 33 995 18.9803 106.008 TS 35 995 10 306
1990250N13157 1990 82 WP MM ED 1990-09-20 00:00:00 TS 19.3250 105.350 1000 tokyo main 0 0 OOOO__________ jtwc_wp WP191990 19.4000 105.000 30 -1 19.4000 105.300 2 1000 0 0 0 19.3000 105.500 1 29 1000 19.2000 105.600 TS 35 995 8 304
1990250N13157 1990 82 WP MM ED 1990-09-20 03:00:00 TS 19.5280 105.046 main 0 0 PPPP__________ WP191990 19.7500 104.840 27 -1 19.3821 104.870 2 1002 0 0 19.5775 105.127 1 29 1000 19.4023 105.347 TS 32 997 6 307
1990250N13157 1990 82 WP MM ED 1990-09-20 06:00:00 TS 19.7000 104.825 1004 tokyo main 0 OOOO__________ jtwc_wp WP191990 20.1000 104.700 25 -1 19.3000 104.600 2 1004 0 0 0 19.8000 104.800 1 29 1000 19.6000 105.200 TD 30 1000 5 309

Digital Typhoon Data and Search

About IBTrACS Database

This database is a web-friendly format of International Best Track Archive for Climate Stewardship (IBTrACS), a global best track data archive curated by NOAA dating back to 1842.

Updated: 2021-10-19